createdAt,value
2022-12-01T00:01:19.868Z,36.17
2022-12-01T00:03:47.669Z,39.90
2022-12-01T00:06:18.023Z,43.15
2022-12-01T00:09:06.656Z,35.70
2022-12-01T00:11:35.535Z,38.83
2022-12-01T00:14:03.229Z,32.63
2022-12-01T00:16:30.616Z,39.05
2022-12-01T00:18:57.970Z,42.20
2022-12-01T00:21:26.637Z,51.92
2022-12-01T00:23:56.089Z,40.42
2022-12-01T00:26:24.121Z,38.25
2022-12-01T00:28:52.860Z,51.85
2022-12-01T00:31:20.624Z,38.72
2022-12-01T00:33:47.668Z,35.58
2022-12-01T00:36:14.636Z,54.08
2022-12-01T00:38:41.812Z,36.45
2022-12-01T00:41:09.263Z,37.80
2022-12-01T00:43:36.248Z,46.08
2022-12-01T00:46:03.934Z,41.08
2022-12-01T00:48:31.073Z,33.25
2022-12-01T00:50:57.978Z,37.35
2022-12-01T00:53:25.026Z,39.38
2022-12-01T00:55:54.223Z,49.78
2022-12-01T00:58:22.151Z,48.72
2022-12-01T01:00:49.780Z,47.53
2022-12-01T01:03:17.481Z,45.03
2022-12-01T01:05:44.504Z,45.40
2022-12-01T01:08:14.999Z,48.88
2022-12-01T01:10:44.437Z,45.35
2022-12-01T01:13:12.980Z,36.95
2022-12-01T01:15:40.764Z,40.25
2022-12-01T01:18:09.756Z,31.75
2022-12-01T01:20:36.796Z,42.58
2022-12-01T01:23:04.038Z,44.85
2022-12-01T01:25:33.160Z,39.80
2022-12-01T01:28:00.318Z,43.63
2022-12-01T01:30:27.792Z,46.88
2022-12-01T01:32:55.187Z,46.80
2022-12-01T01:35:22.357Z,34.83
2022-12-01T01:37:51.028Z,45.17
2022-12-01T01:40:18.788Z,42.13
2022-12-01T01:42:46.220Z,35.85
2022-12-01T01:45:31.583Z,44.20
2022-12-01T01:48:00.459Z,42.80
2022-12-01T01:50:28.941Z,40.33
2022-12-01T01:53:02.895Z,46.03
2022-12-01T01:55:32.254Z,45.00
2022-12-01T01:58:00.178Z,39.75
2022-12-01T02:00:27.205Z,49.88
2022-12-01T02:02:56.531Z,36.88
2022-12-01T02:05:30.605Z,40.55
2022-12-01T02:07:59.772Z,42.55
2022-12-01T02:11:00.367Z,42.25
2022-12-01T02:13:45.513Z,50.95
2022-12-01T02:16:44.492Z,49.83
2022-12-01T02:19:29.658Z,48.42
2022-12-01T02:22:08.608Z,39.28
2022-12-01T02:25:03.205Z,44.47
2022-12-01T02:27:57.547Z,40.50
2022-12-01T02:30:35.213Z,37.97
2022-12-01T02:33:13.654Z,41.47
2022-12-01T02:36:15.840Z,50.78
2022-12-01T02:39:14.498Z,37.88
2022-12-01T02:41:51.311Z,46.88
2022-12-01T02:44:24.987Z,43.00
2022-12-01T02:46:59.416Z,41.78
2022-12-01T02:49:36.727Z,46.33
2022-12-01T02:52:06.534Z,43.05
2022-12-01T02:54:34.682Z,35.30
2022-12-01T02:57:01.633Z,43.75
2022-12-01T02:59:28.676Z,50.72
2022-12-01T03:02:27.374Z,43.75
2022-12-01T03:05:06.972Z,48.03
2022-12-01T03:08:07.067Z,45.42
2022-12-01T03:10:57.083Z,40.20
2022-12-01T03:13:45.220Z,39.90
2022-12-01T03:16:20.526Z,36.75
2022-12-01T03:19:05.506Z,43.13
2022-12-01T03:21:42.613Z,41.33
2022-12-01T03:24:14.650Z,41.60
2022-12-01T03:26:52.520Z,42.25
2022-12-01T03:29:32.187Z,42.47
2022-12-01T03:32:05.874Z,39.00
2022-12-01T03:34:38.520Z,42.85
2022-12-01T03:37:13.079Z,40.85
2022-12-01T03:39:44.070Z,56.38
2022-12-01T03:42:22.708Z,37.03
2022-12-01T03:44:55.614Z,43.15
2022-12-01T03:47:25.225Z,40.60
2022-12-01T03:49:54.175Z,36.47
2022-12-01T03:52:49.764Z,36.90
2022-12-01T03:55:37.890Z,39.83
2022-12-01T03:58:11.186Z,40.25
2022-12-01T04:00:39.230Z,39.40
2022-12-01T04:03:06.703Z,47.58
2022-12-01T04:05:35.263Z,46.53
2022-12-01T04:08:02.683Z,32.58
2022-12-01T04:10:29.739Z,43.72
2022-12-01T04:12:59.750Z,33.97
2022-12-01T04:17:55.076Z,41.72
2022-12-01T04:20:22.758Z,38.78
2022-12-01T04:22:49.919Z,47.50
2022-12-01T04:25:16.971Z,53.92
2022-12-01T04:27:46.192Z,55.63
2022-12-01T04:30:13.455Z,46.97
2022-12-01T04:32:41.757Z,43.80
2022-12-01T04:35:11.866Z,39.75
2022-12-01T04:40:06.939Z,48.22
2022-12-01T04:42:34.294Z,42.88
2022-12-01T04:45:01.281Z,46.22
2022-12-01T04:47:28.404Z,40.10
2022-12-01T04:49:55.443Z,37.47
2022-12-01T04:52:22.429Z,49.05
2022-12-01T04:54:49.410Z,47.42
2022-12-01T04:57:16.403Z,46.28
2022-12-01T04:59:43.332Z,45.35
2022-12-01T05:02:10.322Z,38.88
2022-12-01T05:04:39.964Z,48.67
2022-12-01T05:07:06.946Z,43.58
2022-12-01T05:09:33.954Z,44.65
2022-12-01T05:12:00.970Z,50.78
2022-12-01T05:14:28.263Z,40.85
2022-12-01T05:16:56.109Z,49.20
2022-12-01T05:19:41.515Z,44.97
2022-12-01T05:22:08.514Z,47.78
2022-12-01T05:24:35.620Z,58.60
2022-12-01T05:27:02.569Z,41.95
2022-12-01T05:29:33.161Z,39.28
2022-12-01T05:32:03.286Z,46.47
2022-12-01T05:34:30.399Z,48.65
2022-12-01T05:36:57.905Z,46.00
2022-12-01T05:39:24.892Z,57.75
2022-12-01T05:41:51.923Z,44.65
2022-12-01T05:44:18.843Z,50.35
2022-12-01T05:46:45.825Z,41.15
2022-12-01T05:49:12.783Z,49.47
2022-12-01T05:51:39.714Z,46.63
2022-12-01T05:54:06.671Z,45.20
2022-12-01T05:56:33.594Z,45.60
2022-12-01T05:59:00.555Z,46.67
2022-12-01T06:01:27.805Z,50.15
2022-12-01T06:03:54.873Z,56.22
2022-12-01T06:06:21.923Z,37.10
2022-12-01T06:08:48.918Z,42.17
2022-12-01T06:11:15.898Z,47.63
2022-12-01T06:13:42.838Z,50.33
2022-12-01T06:16:09.952Z,50.60
2022-12-01T06:18:38.569Z,50.25
2022-12-01T06:21:07.057Z,81.72
2022-12-01T06:23:34.478Z,54.75
2022-12-01T06:26:01.464Z,45.72
2022-12-01T06:28:28.519Z,50.75
2022-12-01T06:31:01.030Z,43.58
2022-12-01T06:33:30.089Z,48.15
2022-12-01T06:36:04.778Z,45.05
2022-12-01T06:38:36.681Z,47.63
2022-12-01T06:41:05.567Z,45.45
2022-12-01T06:43:32.639Z,39.75
2022-12-01T06:46:01.966Z,44.53
2022-12-01T06:48:29.715Z,49.22
2022-12-01T06:51:01.142Z,42.75
2022-12-01T06:53:29.411Z,49.60
2022-12-01T06:56:04.467Z,44.13
2022-12-01T06:58:32.115Z,49.25
2022-12-01T07:00:59.582Z,35.42
2022-12-01T07:03:27.243Z,47.97
2022-12-01T07:06:01.725Z,35.58
2022-12-01T07:08:30.489Z,39.83
2022-12-01T07:11:02.308Z,53.67
2022-12-01T07:13:33.364Z,46.65
2022-12-01T07:16:05.470Z,57.17
2022-12-01T07:18:33.492Z,39.20
2022-12-01T07:21:05.892Z,49.58
2022-12-01T07:23:33.830Z,42.83
2022-12-01T07:26:05.581Z,41.70
2022-12-01T07:28:33.135Z,34.97
2022-12-01T07:31:05.371Z,44.72
2022-12-01T07:33:33.031Z,40.15
2022-12-01T07:36:00.278Z,47.00
2022-12-01T07:38:31.537Z,45.20
2022-12-01T07:41:10.396Z,39.83
2022-12-01T07:43:37.410Z,53.75
2022-12-01T07:46:22.267Z,46.60
2022-12-01T07:48:50.202Z,58.58
2022-12-01T07:51:17.862Z,50.47
2022-12-01T07:53:46.102Z,37.45
2022-12-01T07:56:13.944Z,40.92
2022-12-01T07:58:41.204Z,43.50
2022-12-01T08:01:17.572Z,52.03
2022-12-01T08:03:44.904Z,75.28
2022-12-01T08:06:12.612Z,62.28
2022-12-01T08:08:41.010Z,51.03
2022-12-01T08:11:12.985Z,61.95
2022-12-01T08:13:41.383Z,60.83
2022-12-01T08:16:10.716Z,74.65
2022-12-01T08:18:39.837Z,52.15
2022-12-01T08:21:09.562Z,61.30
2022-12-01T08:23:36.721Z,56.40
2022-12-01T08:26:08.442Z,69.43
2022-12-01T08:28:36.516Z,50.90
2022-12-01T08:31:14.252Z,62.60
2022-12-01T08:33:41.283Z,58.85
2022-12-01T08:36:08.621Z,62.03
2022-12-01T08:38:35.831Z,52.53
2022-12-01T08:41:05.070Z,55.05
2022-12-01T08:43:56.420Z,66.53
2022-12-01T08:46:19.326Z,61.67
2022-12-01T08:48:46.919Z,56.03
2022-12-01T08:51:18.432Z,67.63
2022-12-01T08:53:49.757Z,69.57
2022-12-01T08:56:26.230Z,60.70
2022-12-01T08:58:54.220Z,56.67
2022-12-01T09:01:22.003Z,60.53
2022-12-01T09:04:05.280Z,61.65
2022-12-01T09:06:37.638Z,49.95
2022-12-01T09:09:04.780Z,56.08
2022-12-01T09:11:31.739Z,52.33
2022-12-01T09:13:59.242Z,42.95
2022-12-01T09:16:26.435Z,56.90
2022-12-01T09:18:53.399Z,54.90
2022-12-01T09:21:26.063Z,70.47
2022-12-01T09:23:53.455Z,71.47
2022-12-01T09:26:20.876Z,57.35
2022-12-01T09:28:50.211Z,52.22
2022-12-01T09:31:18.605Z,54.72
2022-12-01T09:33:45.655Z,58.72
2022-12-01T09:36:13.465Z,52.05
2022-12-01T09:38:40.697Z,59.72
2022-12-01T09:41:18.425Z,52.08
2022-12-01T09:43:51.244Z,60.17
2022-12-01T09:46:26.445Z,59.83
2022-12-01T09:48:56.240Z,54.97
2022-12-01T09:51:26.275Z,74.18
2022-12-01T09:53:56.773Z,62.83
2022-12-01T09:56:25.080Z,63.88
2022-12-01T09:59:08.206Z,66.93
2022-12-01T10:01:38.566Z,57.03
2022-12-01T10:04:17.724Z,92.13
2022-12-01T10:06:56.645Z,82.60
2022-12-01T10:09:52.488Z,77.25
2022-12-01T10:12:27.841Z,64.78
2022-12-01T10:15:13.138Z,65.15
2022-12-01T10:18:05.013Z,77.05
2022-12-01T10:20:35.172Z,81.95
2022-12-01T10:23:31.052Z,69.15
2022-12-01T10:26:03.790Z,77.80
2022-12-01T10:28:33.636Z,73.45
2022-12-01T10:34:02.050Z,77.03
2022-12-01T10:36:32.298Z,97.57
2022-12-01T10:38:59.730Z,79.97
2022-12-01T10:41:30.195Z,80.07
2022-12-01T10:44:01.080Z,66.07
2022-12-01T10:46:45.826Z,77.40
2022-12-01T10:49:15.302Z,78.47
2022-12-01T10:51:57.406Z,71.72
2022-12-01T10:54:33.175Z,70.82
2022-12-01T10:57:01.352Z,71.38
2022-12-01T10:59:52.894Z,82.85
2022-12-01T11:02:23.189Z,69.05
2022-12-01T11:05:03.070Z,63.72
2022-12-01T11:07:33.122Z,95.13
2022-12-01T11:10:21.715Z,79.78
2022-12-01T11:13:00.000Z,77.38
2022-12-01T11:15:34.492Z,67.63
2022-12-01T11:18:19.674Z,58.92
2022-12-01T11:20:47.437Z,66.25
2022-12-01T11:23:29.962Z,73.03
2022-12-01T11:25:59.593Z,72.78
2022-12-01T11:28:35.042Z,70.13
2022-12-01T11:31:07.560Z,79.68
2022-12-01T11:33:45.277Z,65.10
2022-12-01T11:36:27.290Z,81.00
2022-12-01T11:39:00.233Z,71.72
2022-12-01T11:41:36.899Z,94.15
2022-12-01T11:44:22.431Z,63.10
2022-12-01T11:47:07.801Z,63.33
2022-12-01T11:49:47.114Z,63.67
2022-12-01T11:52:32.949Z,67.85
2022-12-01T11:55:12.264Z,72.93
2022-12-01T11:57:43.842Z,75.90
2022-12-01T12:00:19.496Z,72.75
2022-12-01T12:02:49.515Z,62.42
2022-12-01T12:05:45.931Z,71.38
2022-12-01T12:08:15.541Z,99.28
2022-12-01T12:10:54.653Z,119.07
2022-12-01T12:13:45.683Z,84.50
2022-12-01T12:16:18.778Z,70.68
2022-12-01T12:19:06.613Z,70.47
2022-12-01T12:21:51.632Z,88.68
2022-12-01T12:24:24.748Z,69.30
2022-12-01T12:26:52.874Z,85.28
2022-12-01T12:29:55.619Z,67.97
2022-12-01T12:32:31.502Z,72.60
2022-12-01T12:37:36.059Z,71.65
2022-12-01T12:40:02.907Z,67.75
2022-12-01T12:42:50.525Z,69.55
2022-12-01T12:45:26.086Z,76.93
2022-12-01T12:48:19.298Z,72.72
2022-12-01T12:50:58.680Z,67.63
2022-12-01T12:53:33.328Z,66.00
2022-12-01T12:56:04.691Z,66.20
2022-12-01T12:59:00.767Z,64.95
2022-12-01T13:01:59.831Z,67.70
2022-12-01T13:04:40.932Z,80.53
2022-12-01T13:07:16.645Z,69.93
2022-12-01T13:09:51.600Z,57.78
2022-12-01T13:12:24.488Z,63.55
2022-12-01T13:15:12.093Z,77.68
2022-12-01T13:17:43.610Z,83.65
2022-12-01T13:20:17.664Z,68.60
2022-12-01T13:22:46.145Z,63.75
2022-12-01T13:25:15.644Z,81.05
2022-12-01T13:27:44.508Z,65.88
2022-12-01T13:30:24.664Z,72.10
2022-12-01T13:33:01.411Z,64.68
2022-12-01T13:35:36.788Z,65.30
2022-12-01T13:38:36.132Z,81.35
2022-12-01T13:41:17.890Z,74.68
2022-12-01T13:44:20.249Z,63.63
2022-12-01T13:46:47.369Z,70.43
2022-12-01T13:49:42.701Z,69.63
2022-12-01T13:52:22.070Z,65.60
2022-12-01T13:55:12.158Z,65.95
2022-12-01T13:57:45.120Z,60.22
2022-12-01T14:00:24.233Z,67.25
2022-12-01T14:03:13.134Z,62.95
2022-12-01T14:05:40.156Z,68.18
2022-12-01T14:08:27.434Z,61.33
2022-12-01T14:11:01.802Z,62.50
2022-12-01T14:13:31.601Z,66.60
2022-12-01T14:16:04.346Z,65.53
2022-12-01T14:18:38.644Z,70.20
2022-12-01T14:21:09.582Z,65.13
2022-12-01T14:23:41.350Z,66.93
2022-12-01T14:26:16.708Z,69.55
2022-12-01T14:28:55.985Z,60.22
2022-12-01T14:31:25.043Z,70.85
2022-12-01T14:34:01.491Z,58.20
2022-12-01T14:36:49.000Z,63.28
2022-12-01T14:39:19.300Z,57.95
2022-12-01T14:42:12.619Z,67.90
2022-12-01T14:44:53.504Z,64.93
2022-12-01T14:47:29.890Z,62.92
2022-12-01T14:50:02.158Z,60.47
2022-12-01T14:52:38.690Z,63.75
2022-12-01T14:55:15.917Z,65.25
2022-12-01T14:57:51.711Z,57.33
2022-12-01T15:02:57.268Z,56.33
2022-12-01T15:05:29.998Z,58.58
2022-12-01T15:08:18.718Z,54.53
2022-12-01T15:10:52.464Z,50.92
2022-12-01T15:13:31.863Z,52.85
2022-12-01T15:16:05.185Z,55.00
2022-12-01T15:18:35.015Z,58.05
2022-12-01T15:21:12.072Z,70.95
2022-12-01T15:24:02.186Z,58.75
2022-12-01T15:26:32.249Z,58.65
2022-12-01T15:31:35.203Z,53.17
2022-12-01T15:34:03.520Z,54.30
2022-12-01T15:36:30.793Z,56.03
2022-12-01T15:39:05.289Z,53.88
2022-12-01T15:41:37.346Z,58.83
2022-12-01T15:44:15.698Z,47.80
2022-12-01T15:46:44.376Z,59.03
2022-12-01T15:49:30.176Z,50.83
2022-12-01T15:52:09.842Z,53.10
2022-12-01T15:54:37.995Z,47.05
2022-12-01T15:57:06.142Z,51.92
2022-12-01T15:59:41.659Z,51.45
2022-12-01T16:04:49.947Z,60.40
2022-12-01T16:07:17.297Z,45.63
2022-12-01T16:09:57.034Z,44.65
2022-12-01T16:12:29.163Z,45.95
2022-12-01T16:15:06.976Z,52.75
2022-12-01T16:17:51.608Z,47.88
2022-12-01T16:20:26.352Z,41.83
2022-12-01T16:23:19.495Z,45.97
2022-12-01T16:25:48.634Z,38.45
2022-12-01T16:28:23.387Z,38.80
2022-12-01T16:30:51.724Z,31.40
2022-12-01T16:33:25.303Z,43.95
2022-12-01T16:35:53.360Z,41.47
2022-12-01T16:38:25.959Z,39.58
2022-12-01T16:40:58.411Z,34.45
2022-12-01T16:43:27.845Z,41.85
2022-12-01T16:46:00.851Z,38.15
2022-12-01T16:48:27.912Z,43.42
2022-12-01T16:50:55.443Z,42.05
2022-12-01T16:53:22.559Z,39.53
2022-12-01T16:55:56.188Z,42.15
2022-12-01T16:58:23.249Z,36.63
2022-12-01T17:00:55.438Z,44.60
2022-12-01T17:03:25.969Z,36.85
2022-12-01T17:06:03.498Z,42.30
2022-12-01T17:08:30.994Z,39.80
2022-12-01T17:10:58.160Z,45.38
2022-12-01T17:13:25.412Z,36.25
2022-12-01T17:15:54.196Z,41.45
2022-12-01T17:18:22.927Z,36.95
2022-12-01T17:20:58.613Z,41.85
2022-12-01T17:23:25.878Z,47.08
2022-12-01T17:25:53.329Z,33.67
2022-12-01T17:28:20.632Z,44.67
2022-12-01T17:30:48.012Z,45.05
2022-12-01T17:33:15.129Z,37.58
2022-12-01T17:35:42.396Z,39.47
2022-12-01T17:38:09.593Z,40.75
2022-12-01T17:40:36.691Z,27.63
2022-12-01T17:43:07.774Z,40.53
2022-12-01T17:45:42.096Z,39.10
2022-12-01T17:48:09.486Z,51.47
2022-12-01T17:50:37.991Z,33.83
2022-12-01T17:53:06.542Z,42.47
2022-12-01T17:55:33.820Z,36.72
2022-12-01T17:58:01.158Z,36.35
2022-12-01T18:00:28.417Z,47.42
2022-12-01T18:02:55.706Z,42.80
2022-12-01T18:05:23.130Z,38.58
2022-12-01T18:07:51.603Z,38.60
2022-12-01T18:10:19.051Z,27.77
2022-12-01T18:12:46.534Z,31.23
2022-12-01T18:15:14.778Z,31.92
2022-12-01T18:17:41.847Z,36.60
2022-12-01T18:20:09.557Z,31.85
2022-12-01T18:22:36.864Z,28.73
2022-12-01T18:25:04.183Z,33.17
2022-12-01T18:27:31.268Z,36.05
2022-12-01T18:29:58.345Z,35.10
2022-12-01T18:32:25.393Z,29.63
2022-12-01T18:34:52.739Z,37.00
2022-12-01T18:37:20.176Z,32.50
2022-12-01T18:39:47.422Z,35.72
2022-12-01T18:42:15.278Z,37.58
2022-12-01T18:44:42.644Z,31.70
2022-12-01T18:47:10.028Z,37.97
2022-12-01T18:49:37.239Z,37.72
2022-12-01T18:52:05.042Z,34.67
2022-12-01T18:54:32.120Z,35.28
2022-12-01T18:56:59.662Z,36.38
2022-12-01T18:59:27.201Z,40.65
2022-12-01T19:01:55.889Z,36.15
2022-12-01T19:04:24.001Z,40.30
2022-12-01T19:06:51.118Z,40.40
2022-12-01T19:09:18.597Z,44.00
2022-12-01T19:11:46.309Z,37.03
2022-12-01T19:14:18.535Z,38.15
2022-12-01T19:16:46.930Z,36.67
2022-12-01T19:19:14.272Z,40.70
2022-12-01T19:21:43.034Z,45.13
2022-12-01T19:24:10.092Z,38.80
2022-12-01T19:26:37.516Z,40.85
2022-12-01T19:29:05.510Z,39.85
2022-12-01T19:31:32.624Z,37.85
2022-12-01T19:34:04.313Z,40.28
2022-12-01T19:36:31.499Z,48.03
2022-12-01T19:39:00.443Z,33.47
2022-12-01T19:43:55.937Z,44.38
2022-12-01T19:46:25.761Z,40.35
2022-12-01T19:48:58.990Z,32.03
2022-12-01T19:51:29.926Z,40.47
2022-12-01T19:54:00.116Z,44.03
2022-12-01T19:56:28.515Z,45.55
2022-12-01T19:58:57.283Z,46.97
2022-12-01T20:01:24.997Z,51.17
2022-12-01T20:03:53.866Z,40.95
2022-12-01T20:06:26.756Z,35.85
2022-12-01T20:08:56.828Z,41.55
2022-12-01T20:11:24.768Z,41.60
2022-12-01T20:13:54.246Z,54.15
2022-12-01T20:16:23.893Z,47.78
2022-12-01T20:18:52.398Z,59.10
2022-12-01T20:21:22.296Z,52.17
2022-12-01T20:23:54.183Z,41.65
2022-12-01T20:26:24.918Z,43.53
2022-12-01T20:28:55.087Z,43.47
2022-12-01T20:31:25.316Z,45.10
2022-12-01T20:33:54.811Z,49.65
2022-12-01T20:36:22.686Z,47.03
2022-12-01T20:38:49.782Z,44.50
2022-12-01T20:41:17.619Z,46.97
2022-12-01T20:43:44.686Z,55.20
2022-12-01T20:46:13.446Z,40.80
2022-12-01T20:48:40.663Z,35.38
2022-12-01T20:51:08.253Z,59.05
2022-12-01T20:53:36.156Z,41.05
2022-12-01T20:56:08.787Z,46.30
2022-12-01T20:58:37.908Z,47.40
2022-12-01T21:01:10.784Z,34.40
2022-12-01T21:03:39.682Z,43.03
2022-12-01T21:06:07.618Z,46.47
2022-12-01T21:08:37.146Z,51.20
2022-12-01T21:11:19.560Z,43.15
2022-12-01T21:13:47.272Z,43.95
2022-12-01T21:16:27.567Z,47.92
2022-12-01T21:19:01.907Z,39.38
2022-12-01T21:21:31.095Z,53.20
2022-12-01T21:24:19.964Z,48.13
2022-12-01T21:27:01.637Z,44.78
2022-12-01T21:29:39.866Z,43.75
2022-12-01T21:32:29.084Z,49.13
2022-12-01T21:35:03.267Z,48.22
2022-12-01T21:37:30.562Z,44.97
2022-12-01T21:39:57.759Z,52.17
2022-12-01T21:42:31.564Z,43.63
2022-12-01T21:44:58.741Z,38.75
2022-12-01T21:47:30.973Z,41.28
2022-12-01T21:50:00.012Z,40.53
2022-12-01T21:52:41.909Z,39.15
2022-12-01T21:57:46.752Z,39.00
2022-12-01T22:00:34.479Z,39.33
2022-12-01T22:03:20.098Z,38.05
2022-12-01T22:06:21.340Z,40.80
2022-12-01T22:08:43.663Z,47.33
2022-12-01T22:11:24.167Z,37.65
2022-12-01T22:14:09.696Z,38.35
2022-12-01T22:16:41.435Z,42.50
2022-12-01T22:19:17.311Z,40.90
2022-12-01T22:21:48.497Z,34.38
2022-12-01T22:24:22.364Z,38.80
2022-12-01T22:26:53.447Z,33.90
2022-12-01T22:29:20.489Z,43.70
2022-12-01T22:31:48.146Z,42.75
2022-12-01T22:34:19.255Z,52.65
2022-12-01T22:36:46.283Z,36.72
2022-12-01T22:39:30.446Z,44.60
2022-12-01T22:42:14.008Z,37.20
2022-12-01T22:44:45.054Z,39.15
2022-12-01T22:47:12.470Z,51.53
2022-12-01T22:49:39.508Z,37.25
2022-12-01T22:52:20.699Z,34.35
2022-12-01T22:54:49.966Z,38.92
2022-12-01T22:57:35.195Z,43.90
2022-12-01T23:00:17.480Z,39.30
2022-12-01T23:02:47.722Z,45.72
2022-12-01T23:05:27.447Z,36.50
2022-12-01T23:07:55.284Z,31.83
2022-12-01T23:10:30.141Z,38.65
2022-12-01T23:13:08.901Z,38.58
2022-12-01T23:15:39.515Z,40.00
2022-12-01T23:18:23.263Z,48.45
2022-12-01T23:20:55.800Z,42.63
2022-12-01T23:23:31.080Z,44.30
2022-12-01T23:25:59.117Z,42.92
2022-12-01T23:28:26.196Z,40.47
2022-12-01T23:30:57.073Z,49.08
2022-12-01T23:33:29.164Z,44.17
2022-12-01T23:36:02.382Z,49.85
2022-12-01T23:38:57.709Z,54.25
2022-12-01T23:41:37.208Z,43.50
2022-12-01T23:44:29.557Z,43.22
2022-12-01T23:46:58.109Z,45.63
2022-12-01T23:49:31.618Z,38.33
2022-12-01T23:52:02.400Z,38.97
2022-12-01T23:54:38.605Z,44.60
2022-12-01T23:57:16.716Z,42.72
2022-12-01T23:59:44.880Z,47.63
